Time;durP1;ratioP1;P1;durP2;ratioP2;P2;SDS_P1;SDS_P2;PMS_P1;PMS_P2;Temp;Humidity;BMP_temperature;BMP_pressure;BME280_temperature;BME280_humidity;BME280_pressure;Samples;Min_cycle;Max_cycle;Signal;HPM_P1;HPM_P2
2023/03/05 00:01:54;;;;;;;20.55;7.60;;;4.00;99.90;;;;;;4996723;28;20034;-73
2023/03/05 00:04:20;;;;;;;20.15;6.97;;;4.00;99.90;;;;;;5001836;28;20065;-71
2023/03/05 00:06:46;;;;;;;24.45;9.45;;;4.00;99.90;;;;;;4995165;28;20019;-71
2023/03/05 00:09:12;;;;;;;30.60;8.70;;;4.00;99.90;;;;;;4955903;28;20134;-72
2023/03/05 00:11:38;;;;;;;21.30;6.97;;;4.00;99.90;;;;;;4966048;28;20105;-73
2023/03/05 00:14:05;;;;;;;21.65;7.88;;;4.00;99.90;;;;;;4971262;28;20031;-73
2023/03/05 00:16:31;;;;;;;30.10;8.13;;;4.00;99.90;;;;;;4962381;28;20050;-73
2023/03/05 00:18:59;;;;;;;29.50;9.50;;;3.90;99.90;;;;;;4952637;28;20051;-72
2023/03/05 00:21:32;;;;;;;18.63;7.57;;;3.90;99.90;;;;;;4980347;28;20057;-72
2023/03/05 00:24:01;;;;;;;15.13;6.18;;;3.90;99.90;;;;;;5001387;28;20455;-72
2023/03/05 00:26:27;;;;;;;12.95;6.20;;;3.90;99.90;;;;;;4995944;28;20058;-72
2023/03/05 00:28:56;;;;;;;22.02;9.40;;;3.90;99.90;;;;;;4970792;28;20094;-72
2023/03/05 00:31:29;;;;;;;21.02;7.32;;;3.90;99.90;;;;;;4979766;28;20046;-72
2023/03/05 00:34:00;;;;;;;23.20;8.55;;;3.90;99.90;;;;;;5000715;28;20027;-72
2023/03/05 00:36:27;;;;;;;17.20;7.05;;;3.90;99.90;;;;;;4964601;28;20032;-72
2023/03/05 00:38:54;;;;;;;28.90;7.60;;;3.90;99.90;;;;;;4951356;28;20399;-72
2023/03/05 00:41:20;;;;;;;15.38;7.80;;;3.90;99.90;;;;;;4979841;28;20031;-72
2023/03/05 00:43:47;;;;;;;19.27;6.65;;;3.90;99.90;;;;;;4971993;28;20031;-72
2023/03/05 00:46:13;;;;;;;20.60;7.90;;;3.90;99.90;;;;;;4977132;28;20095;-72
2023/03/05 00:48:38;;;;;;;19.02;6.65;;;3.90;99.90;;;;;;4954045;29;20039;-73
2023/03/05 00:51:04;;;;;;;32.90;8.70;;;3.90;99.90;;;;;;4962241;28;20114;-73
2023/03/05 00:53:30;;;;;;;26.55;7.15;;;3.90;99.90;;;;;;4973161;28;20076;-72
2023/03/05 00:55:57;;;;;;;21.90;8.27;;;3.90;99.90;;;;;;4962204;28;20023;-72
2023/03/05 00:58:23;;;;;;;24.50;7.75;;;3.90;99.90;;;;;;5004103;28;20066;-72
2023/03/05 01:00:49;;;;;;;24.02;7.63;;;3.80;99.90;;;;;;4993464;28;20065;-72
2023/03/05 01:03:18;;;;;;;34.90;8.93;;;3.80;99.90;;;;;;4987380;28;20038;-72
2023/03/05 01:05:44;;;;;;;26.35;9.10;;;3.90;99.90;;;;;;4998173;28;20034;-73
2023/03/05 01:08:10;;;;;;;26.23;9.32;;;3.80;99.90;;;;;;4954506;28;20039;-73
2023/03/05 01:10:36;;;;;;;21.33;8.50;;;3.80;99.90;;;;;;4974630;28;20042;-73
2023/03/05 01:13:02;;;;;;;29.33;6.53;;;3.80;99.90;;;;;;4983476;23;20051;-75
2023/03/05 01:15:28;;;;;;;21.23;8.43;;;3.80;99.90;;;;;;4979104;28;20130;-76
2023/03/05 01:17:53;;;;;;;21.75;8.05;;;3.80;99.90;;;;;;4969584;28;20462;-75
2023/03/05 01:20:21;;;;;;;18.15;6.53;;;3.80;99.90;;;;;;4984126;28;20041;-75
2023/03/05 01:22:48;;;;;;;31.52;10.40;;;3.80;99.90;;;;;;4986554;28;20034;-75
2023/03/05 01:25:14;;;;;;;21.75;7.25;;;3.90;99.90;;;;;;4982890;28;20035;-75
2023/03/05 01:27:40;;;;;;;22.45;8.10;;;3.80;99.90;;;;;;4988503;28;20026;-75
2023/03/05 01:30:10;;;;;;;23.80;8.65;;;3.80;99.90;;;;;;4980962;28;20027;-75
2023/03/05 01:32:36;;;;;;;21.17;7.40;;;3.90;99.90;;;;;;4989406;28;20430;-74
2023/03/05 01:35:03;;;;;;;19.25;7.22;;;3.80;99.90;;;;;;4979559;28;20161;-75
2023/03/05 01:37:29;;;;;;;19.90;6.63;;;3.80;99.90;;;;;;4992160;28;20098;-75
2023/03/05 01:39:55;;;;;;;22.15;6.68;;;3.90;99.90;;;;;;4978201;28;20042;-75
2023/03/05 01:42:21;;;;;;;27.70;8.57;;;3.90;99.90;;;;;;4992086;28;20498;-75
2023/03/05 01:45:10;;;;;;;24.35;8.02;;;3.90;99.90;;;;;;4977147;28;20130;-75
2023/03/05 01:47:37;;;;;;;19.73;7.78;;;3.90;99.90;;;;;;4952154;28;20058;-75
2023/03/05 01:50:06;;;;;;;21.30;7.38;;;3.90;99.90;;;;;;4980232;28;20026;-75
2023/03/05 01:52:34;;;;;;;19.02;8.65;;;4.00;99.90;;;;;;4991828;28;20478;-74
2023/03/05 01:55:23;;;;;;;17.35;6.07;;;4.00;99.90;;;;;;4979292;28;20038;-74
2023/03/05 01:58:10;;;;;;;21.63;7.35;;;3.90;99.90;;;;;;4968495;28;20534;-74
2023/03/05 02:00:45;;;;;;;20.02;8.05;;;3.90;99.90;;;;;;4973188;28;20487;-74
2023/03/05 02:03:12;;;;;;;22.58;8.52;;;3.90;99.90;;;;;;4970584;28;20043;-75
2023/03/05 02:05:42;;;;;;;18.63;7.75;;;3.90;99.90;;;;;;4967778;28;20071;-75
2023/03/05 02:08:11;;;;;;;15.65;6.18;;;3.90;99.90;;;;;;4965298;28;20399;-75
2023/03/05 02:10:40;;;;;;;18.42;7.32;;;3.80;99.90;;;;;;4975418;28;20027;-75
2023/03/05 02:13:10;;;;;;;16.88;6.38;;;3.90;99.90;;;;;;4972094;28;20024;-75
2023/03/05 02:15:37;;;;;;;21.65;7.25;;;3.90;99.90;;;;;;4984332;28;20506;-74
2023/03/05 02:18:05;;;;;;;16.77;5.32;;;4.00;99.90;;;;;;4986261;28;20032;-75
2023/03/05 02:20:56;;;;;;;19.42;7.45;;;4.00;99.90;;;;;;4983758;28;20386;-75
2023/03/05 02:23:28;;;;;;;21.95;7.70;;;3.90;99.90;;;;;;4971105;28;20062;-75
2023/03/05 02:25:55;;;;;;;22.30;6.28;;;3.80;99.90;;;;;;4970331;28;20019;-74
2023/03/05 02:28:38;;;;;;;20.38;6.80;;;3.80;99.90;;;;;;4972804;28;20714;-75
2023/03/05 02:31:18;;;;;;;19.27;7.40;;;3.80;99.90;;;;;;4983197;28;20151;-75
2023/03/05 02:33:45;;;;;;;17.10;6.25;;;3.90;99.90;;;;;;4985364;28;20545;-74
2023/03/05 02:36:11;;;;;;;26.95;6.00;;;3.90;99.90;;;;;;4981741;28;20038;-75
2023/03/05 02:38:38;;;;;;;19.40;7.65;;;3.90;99.90;;;;;;4984238;28;20453;-75
2023/03/05 02:41:04;;;;;;;19.52;6.82;;;3.90;99.90;;;;;;4970922;28;20033;-75
2023/03/05 02:43:29;;;;;;;22.15;6.28;;;3.90;99.90;;;;;;4962450;28;20038;-75
2023/03/05 02:45:55;;;;;;;20.60;8.40;;;3.90;99.90;;;;;;4982967;28;20397;-74
2023/03/05 02:48:21;;;;;;;21.88;8.00;;;3.80;99.90;;;;;;4985688;28;20113;-75
2023/03/05 02:50:48;;;;;;;38.00;8.00;;;3.80;99.90;;;;;;4981361;28;20022;-75
2023/03/05 02:53:13;;;;;;;20.05;6.57;;;3.80;99.90;;;;;;4981289;28;20070;-75
2023/03/05 02:55:39;;;;;;;16.17;7.43;;;3.80;99.90;;;;;;4978203;28;20118;-76
2023/03/05 02:58:05;;;;;;;21.48;7.30;;;3.90;99.90;;;;;;4969544;28;20714;-75
2023/03/05 03:00:32;;;;;;;18.58;5.93;;;3.90;99.90;;;;;;4982645;28;20105;-75
2023/03/05 03:02:57;;;;;;;17.13;6.65;;;3.80;99.90;;;;;;4984218;28;20228;-75
2023/03/05 03:05:23;;;;;;;22.00;6.97;;;3.90;99.90;;;;;;4981504;28;20124;-75
2023/03/05 03:07:50;;;;;;;18.65;7.80;;;3.90;99.90;;;;;;4986089;28;20034;-75
2023/03/05 03:10:16;;;;;;;15.88;6.25;;;3.90;99.90;;;;;;4982027;28;20097;-75
2023/03/05 03:12:43;;;;;;;14.00;5.97;;;3.90;99.90;;;;;;4987505;28;20061;-74
2023/03/05 03:15:12;;;;;;;23.15;7.13;;;4.00;99.90;;;;;;4994393;28;20358;-75
2023/03/05 03:17:38;;;;;;;30.13;7.28;;;3.90;99.90;;;;;;4987768;28;20034;-75
2023/03/05 03:20:09;;;;;;;16.02;5.95;;;3.80;99.90;;;;;;4979265;28;20110;-75
2023/03/05 03:22:35;;;;;;;22.87;7.60;;;3.80;99.90;;;;;;4987853;28;20042;-74
2023/03/05 03:25:02;;;;;;;18.42;5.30;;;3.70;99.90;;;;;;4980208;28;20383;-75
2023/03/05 03:27:28;;;;;;;19.77;7.18;;;3.70;99.90;;;;;;4990674;28;20038;-75
2023/03/05 03:29:53;;;;;;;26.65;7.10;;;3.80;99.90;;;;;;4976995;28;20031;-75
2023/03/05 03:32:19;;;;;;;20.73;6.68;;;3.80;99.90;;;;;;4992996;28;20034;-75
2023/03/05 03:34:46;;;;;;;17.85;6.97;;;3.80;99.90;;;;;;4980213;28;20046;-75
2023/03/05 03:37:13;;;;;;;19.42;7.13;;;3.80;99.90;;;;;;4966556;28;20081;-75
2023/03/05 03:39:39;;;;;;;14.82;6.28;;;3.80;99.90;;;;;;4968890;28;20036;-75
2023/03/05 03:42:05;;;;;;;23.98;8.35;;;3.90;99.90;;;;;;5005703;28;20030;-75
2023/03/05 03:44:31;;;;;;;19.88;6.50;;;3.90;99.90;;;;;;4983051;28;20085;-75
2023/03/05 03:46:56;;;;;;;18.73;7.05;;;3.80;99.90;;;;;;4991040;28;20026;-75
2023/03/05 03:49:25;;;;;;;20.92;6.15;;;3.80;99.90;;;;;;4998784;28;20022;-75
2023/03/05 03:51:57;;;;;;;18.55;7.05;;;3.80;99.90;;;;;;4989089;28;20360;-75
2023/03/05 03:54:23;;;;;;;15.13;6.18;;;3.80;99.90;;;;;;4983051;28;20104;-75
2023/03/05 03:56:50;;;;;;;19.38;7.13;;;3.90;99.90;;;;;;4990087;28;20119;-75
2023/03/05 03:59:15;;;;;;;20.48;5.38;;;3.90;99.90;;;;;;4984846;28;20062;-75
2023/03/05 04:01:41;;;;;;;12.57;7.07;;;4.00;99.90;;;;;;4991130;28;20113;-75
2023/03/05 04:04:09;;;;;;;15.25;6.15;;;4.00;99.90;;;;;;4989966;28;20490;-75
2023/03/05 04:06:35;;;;;;;23.77;7.78;;;4.10;99.90;;;;;;4989458;28;20030;-75
2023/03/05 04:09:01;;;;;;;16.40;6.25;;;4.20;99.90;;;;;;4986978;28;20033;-75
2023/03/05 04:11:26;;;;;;;14.55;5.65;;;4.10;99.90;;;;;;4987199;28;20030;-75
2023/03/05 04:13:52;;;;;;;19.67;7.03;;;4.00;99.90;;;;;;4995775;28;20100;-75
2023/03/05 04:16:18;;;;;;;19.10;7.03;;;4.10;99.90;;;;;;4988508;28;20064;-75
2023/03/05 04:18:44;;;;;;;18.98;7.70;;;4.10;99.90;;;;;;4990728;28;20081;-75
2023/03/05 04:21:10;;;;;;;23.10;7.90;;;4.00;99.90;;;;;;4985882;28;20055;-75
2023/03/05 04:23:36;;;;;;;18.75;6.80;;;4.00;99.90;;;;;;4986919;28;20026;-75
2023/03/05 04:26:03;;;;;;;22.40;6.95;;;3.90;99.90;;;;;;4984943;28;20363;-75
2023/03/05 04:28:29;;;;;;;14.98;6.15;;;3.80;99.90;;;;;;4986449;28;20109;-76
2023/03/05 04:30:55;;;;;;;22.30;7.53;;;3.70;99.90;;;;;;4984537;28;20030;-76
2023/03/05 04:33:21;;;;;;;16.35;6.43;;;3.70;99.90;;;;;;4987894;28;20037;-75
2023/03/05 04:35:46;;;;;;;27.55;7.32;;;3.70;99.90;;;;;;4984757;28;20030;-76
2023/03/05 04:38:12;;;;;;;17.63;6.57;;;3.80;99.90;;;;;;4987601;28;20381;-76
2023/03/05 04:40:38;;;;;;;18.10;7.40;;;3.80;99.90;;;;;;4983898;28;20037;-76
2023/03/05 04:43:04;;;;;;;19.50;6.20;;;3.80;99.90;;;;;;4987131;28;20059;-76
2023/03/05 04:45:31;;;;;;;17.35;7.07;;;3.80;99.90;;;;;;4983616;28;20022;-76
2023/03/05 04:47:57;;;;;;;27.65;6.43;;;3.50;99.90;;;;;;4986086;28;20106;-76
2023/03/05 04:50:23;;;;;;;18.58;6.75;;;3.60;99.90;;;;;;4984300;28;20261;-76
2023/03/05 04:52:48;;;;;;;17.63;6.72;;;3.60;99.90;;;;;;4986925;28;20056;-75
2023/03/05 04:55:15;;;;;;;19.77;7.78;;;3.60;99.90;;;;;;4982565;28;20153;-76
2023/03/05 04:57:41;;;;;;;18.83;6.68;;;3.60;99.90;;;;;;4990303;28;20038;-76
2023/03/05 05:00:13;;;;;;;19.00;6.43;;;3.60;99.90;;;;;;4980203;28;20039;-76
2023/03/05 05:02:45;;;;;;;18.23;6.63;;;3.70;99.90;;;;;;4989253;28;20022;-75
2023/03/05 05:05:15;;;;;;;27.33;8.90;;;3.70;99.90;;;;;;4982122;28;20031;-76
2023/03/05 05:07:41;;;;;;;15.50;5.78;;;3.80;99.90;;;;;;4990161;28;20105;-75
2023/03/05 05:10:09;;;;;;;19.83;7.18;;;3.70;99.90;;;;;;4981312;28;20066;-76
2023/03/05 05:12:36;;;;;;;20.15;6.95;;;3.80;99.90;;;;;;4989642;28;20041;-76
2023/03/05 05:15:03;;;;;;;18.33;6.38;;;3.80;99.90;;;;;;4980073;28;20034;-76
2023/03/05 05:17:31;;;;;;;22.95;7.28;;;3.80;99.90;;;;;;4991983;28;20061;-76
2023/03/05 05:19:59;;;;;;;17.95;6.75;;;3.80;99.90;;;;;;4977840;28;20483;-75
2023/03/05 05:22:26;;;;;;;14.07;6.65;;;3.80;99.90;;;;;;4975299;28;20038;-75
2023/03/05 05:24:52;;;;;;;27.25;6.43;;;3.80;99.90;;;;;;4976514;28;20030;-76
2023/03/05 05:27:18;;;;;;;22.55;6.32;;;3.80;99.90;;;;;;4991963;28;20040;-76
2023/03/05 05:29:45;;;;;;;17.35;7.00;;;3.90;99.90;;;;;;4978019;28;20023;-76
2023/03/05 05:32:11;;;;;;;16.52;6.63;;;3.80;99.90;;;;;;4991034;28;20038;-76
2023/03/05 05:34:36;;;;;;;17.30;6.53;;;3.70;99.90;;;;;;4995432;28;20027;-76
2023/03/05 05:37:02;;;;;;;19.20;7.05;;;3.80;99.90;;;;;;4990055;28;20069;-76
2023/03/05 05:39:28;;;;;;;17.90;7.47;;;3.80;99.90;;;;;;4981502;28;20030;-76
2023/03/05 05:41:54;;;;;;;19.80;5.72;;;3.80;99.90;;;;;;5003857;28;20034;-76
2023/03/05 05:44:19;;;;;;;25.60;5.53;;;3.70;99.90;;;;;;4982260;28;20058;-76
2023/03/05 05:46:45;;;;;;;18.40;6.93;;;3.60;99.90;;;;;;5002399;28;20056;-75
2023/03/05 05:49:11;;;;;;;15.95;6.93;;;3.70;99.90;;;;;;4982885;28;20117;-76
2023/03/05 05:51:37;;;;;;;21.98;6.93;;;3.70;99.90;;;;;;4986341;28;20035;-76
2023/03/05 05:54:03;;;;;;;16.17;7.22;;;3.70;99.90;;;;;;4984629;28;20034;-76
2023/03/05 05:56:28;;;;;;;10.27;4.72;;;3.70;99.90;;;;;;4983992;28;20034;-76
2023/03/05 05:58:54;;;;;;;20.42;6.47;;;3.60;99.90;;;;;;4986029;28;20040;-75
2023/03/05 06:01:27;;;;;;;20.30;8.10;;;3.60;99.90;;;;;;4983533;28;20046;-76
2023/03/05 06:03:54;;;;;;;28.23;7.70;;;3.70;99.90;;;;;;4984102;28;20088;-75
2023/03/05 06:06:23;;;;;;;15.10;6.65;;;3.60;99.90;;;;;;4983530;28;20056;-76
2023/03/05 06:08:50;;;;;;;13.95;5.28;;;3.60;99.90;;;;;;4985617;28;20080;-75
2023/03/05 06:11:16;;;;;;;16.58;7.45;;;3.80;99.90;;;;;;4981647;28;20058;-76
2023/03/05 06:13:42;;;;;;;13.20;5.82;;;4.00;99.90;;;;;;4977744;28;20395;-76
2023/03/05 06:16:18;;;;;;;27.88;6.80;;;4.10;99.90;;;;;;4967306;28;20041;-77
2023/03/05 06:18:44;;;;;;;12.60;5.70;;;4.40;99.90;;;;;;4973309;28;20035;-76
2023/03/05 06:21:16;;;;;;;13.48;5.68;;;4.50;99.90;;;;;;4978926;28;20387;-74
2023/03/05 06:23:42;;;;;;;13.05;6.00;;;4.60;99.90;;;;;;4974693;28;20129;-74
2023/03/05 06:26:12;;;;;;;15.63;6.15;;;4.70;99.90;;;;;;4982743;28;20037;-73
2023/03/05 06:28:37;;;;;;;17.52;5.88;;;4.60;99.90;;;;;;4984458;28;20446;-73
2023/03/05 06:31:25;;;;;;;9.63;4.28;;;4.70;99.90;;;;;;4981596;28;20101;-73
2023/03/05 06:33:53;;;;;;;8.43;4.32;;;4.80;99.90;;;;;;4984663;28;20042;-74
2023/03/05 06:36:22;;;;;;;12.38;5.25;;;4.80;99.90;;;;;;4978171;28;20031;-74
2023/03/05 06:38:48;;;;;;;13.02;6.20;;;4.70;99.90;;;;;;4985469;28;20045;-74
2023/03/05 06:41:18;;;;;;;14.95;6.28;;;4.70;99.90;;;;;;4981641;28;20105;-73
2023/03/05 06:43:46;;;;;;;12.05;5.50;;;4.70;99.90;;;;;;4985244;28;20030;-74
2023/03/05 06:46:31;;;;;;;9.00;4.88;;;4.70;99.90;;;;;;4981736;28;20037;-74
2023/03/05 06:49:00;;;;;;;12.15;4.68;;;4.70;99.90;;;;;;4967299;28;20113;-74
2023/03/05 06:51:36;;;;;;;11.05;4.78;;;4.70;99.90;;;;;;4983912;28;20090;-74
2023/03/05 06:54:12;;;;;;;15.88;5.13;;;4.70;99.90;;;;;;4975597;28;20030;-74
2023/03/05 06:56:41;;;;;;;13.50;4.93;;;4.70;99.90;;;;;;4984213;28;20030;-74
2023/03/05 06:59:07;;;;;;;13.65;5.57;;;4.70;99.90;;;;;;4983642;28;20338;-74
2023/03/05 07:01:33;;;;;;;17.20;4.97;;;4.60;99.90;;;;;;4967219;28;20042;-74
2023/03/05 07:04:01;;;;;;;11.52;6.00;;;4.60;99.90;;;;;;4978545;28;20034;-73
2023/03/05 07:06:31;;;;;;;21.90;6.55;;;4.70;99.90;;;;;;4973641;28;20034;-73
2023/03/05 07:09:00;;;;;;;11.88;5.28;;;4.70;99.90;;;;;;4985153;28;20509;-72
2023/03/05 07:11:26;;;;;;;15.30;7.07;;;4.80;99.90;;;;;;4979683;28;20026;-71
2023/03/05 07:13:52;;;;;;;19.45;6.97;;;4.70;99.90;;;;;;4996333;23;20131;-79
2023/03/05 07:16:22;;;;;;;20.80;7.18;;;4.60;99.90;;;;;;4994654;28;20120;-82
2023/03/05 07:18:48;;;;;;;16.85;6.47;;;4.60;99.90;;;;;;4995779;28;20045;-89
2023/03/05 07:21:22;;;;;;;13.57;5.38;;;4.60;99.90;;;;;;4992596;28;20112;-85
2023/03/05 07:23:49;;;;;;;19.58;7.30;;;4.80;99.90;;;;;;5011525;28;20041;-88
2023/03/05 07:26:15;;;;;;;16.80;5.07;;;4.90;99.90;;;;;;5012245;28;20038;-85
2023/03/05 07:28:42;;;;;;;12.82;6.55;;;5.00;99.90;;;;;;4994924;28;20105;-88
2023/03/05 07:31:13;;;;;;;18.08;6.03;;;5.00;99.90;;;;;;4995718;28;20447;-85
2023/03/05 07:33:39;;;;;;;19.33;6.28;;;5.10;99.90;;;;;;4994455;28;20030;-87
2023/03/05 07:36:10;;;;;;;14.57;5.07;;;5.10;99.90;;;;;;4996331;28;20057;-90
2023/03/05 07:38:36;;;;;;;10.05;4.95;;;5.20;99.90;;;;;;4995579;28;20034;-85
2023/03/05 07:41:12;;;;;;;13.50;5.22;;;5.30;99.90;;;;;;4992031;28;20030;-86
2023/03/05 07:43:38;;;;;;;8.70;4.78;;;5.40;99.90;;;;;;5010667;28;20100;-88
2023/03/05 07:46:06;;;;;;;8.15;4.25;;;5.30;99.90;;;;;;4996259;28;20034;-87
2023/03/05 07:48:33;;;;;;;11.93;5.05;;;5.50;99.90;;;;;;4995519;28;20026;-85
2023/03/05 07:51:13;;;;;;;16.95;5.95;;;5.60;99.90;;;;;;4994039;28;20532;-84
2023/03/05 07:53:40;;;;;;;10.90;4.85;;;5.60;99.90;;;;;;4995674;28;20077;-88
2023/03/05 07:56:06;;;;;;;14.75;4.70;;;5.60;99.90;;;;;;4996513;28;20034;-87
2023/03/05 07:58:32;;;;;;;40.97;16.40;;;5.70;99.90;;;;;;4996307;28;20033;-87
2023/03/05 08:00:58;;;;;;;19.65;5.28;;;5.70;99.90;;;;;;4994800;28;20035;-84
2023/03/05 08:03:24;;;;;;;15.57;5.97;;;5.70;99.90;;;;;;4993955;28;20038;-81
2023/03/05 08:05:49;;;;;;;13.50;7.00;;;5.60;99.90;;;;;;4995444;28;20113;-87
2023/03/05 08:08:15;;;;;;;13.35;6.22;;;5.70;99.90;;;;;;4995251;28;20102;-85
2023/03/05 08:10:41;;;;;;;14.32;4.47;;;5.90;99.90;;;;;;4993624;28;20030;-84
2023/03/05 08:13:07;;;;;;;13.55;5.43;;;6.00;99.90;;;;;;4993713;28;20037;-85
2023/03/05 08:15:33;;;;;;;9.32;4.18;;;6.00;99.90;;;;;;4992091;28;20034;-83
2023/03/05 08:17:59;;;;;;;10.02;4.80;;;6.00;99.90;;;;;;4994288;28;20520;-86
2023/03/05 08:20:25;;;;;;;16.10;4.18;;;6.00;99.90;;;;;;4993557;28;20023;-81
2023/03/05 08:22:51;;;;;;;11.18;3.88;;;6.00;99.90;;;;;;4995219;28;20105;-79
2023/03/05 08:25:17;;;;;;;11.98;3.97;;;6.00;99.90;;;;;;4987741;28;20118;-82
2023/03/05 08:27:45;;;;;;;8.02;3.97;;;5.90;99.90;;;;;;4990169;28;20027;-80
2023/03/05 08:30:16;;;;;;;8.95;4.70;;;6.10;99.90;;;;;;4993146;28;20026;-80
2023/03/05 08:32:42;;;;;;;11.93;4.97;;;6.20;99.90;;;;;;4992350;28;20030;-81
2023/03/05 08:35:08;;;;;;;33.60;5.65;;;6.00;99.90;;;;;;4993221;28;20481;-79
2023/03/05 08:37:35;;;;;;;13.07;4.85;;;6.20;99.90;;;;;;4992567;28;20061;-78
2023/03/05 08:40:01;;;;;;;11.68;4.88;;;6.40;99.90;;;;;;4992277;28;20030;-80
2023/03/05 08:42:27;;;;;;;6.72;3.85;;;6.40;99.90;;;;;;5008058;28;20030;-78
2023/03/05 08:44:52;;;;;;;10.55;4.10;;;6.50;99.90;;;;;;4992899;28;20038;-81
2023/03/05 08:47:19;;;;;;;8.93;3.30;;;6.50;99.90;;;;;;4991839;28;20108;-79
2023/03/05 08:49:45;;;;;;;6.80;3.55;;;6.60;99.90;;;;;;4992777;28;20106;-81
2023/03/05 08:52:11;;;;;;;10.05;3.95;;;6.70;99.90;;;;;;5005770;28;20035;-74
2023/03/05 08:54:38;;;;;;;5.90;3.65;;;6.80;99.90;;;;;;4997408;28;20081;-75
2023/03/05 08:57:04;;;;;;;14.05;4.22;;;6.60;99.90;;;;;;5007241;28;20045;-75
2023/03/05 08:59:31;;;;;;;14.68;3.67;;;6.70;99.90;;;;;;4990816;28;20034;-76
2023/03/05 09:02:01;;;;;;;6.93;3.65;;;6.80;99.90;;;;;;4981226;28;20486;-72
2023/03/05 09:04:26;;;;;;;7.57;2.95;;;6.80;99.90;;;;;;4991557;28;20030;-77
2023/03/05 09:06:52;;;;;;;5.55;2.30;;;6.90;99.90;;;;;;4990771;28;20544;-75
2023/03/05 09:09:20;;;;;;;6.53;2.00;;;6.90;99.90;;;;;;4992010;28;20030;-74
2023/03/05 09:11:46;;;;;;;5.35;2.25;;;7.00;99.90;;;;;;4992023;28;20022;-74
2023/03/05 09:14:12;;;;;;;6.88;2.33;;;6.90;99.90;;;;;;4990643;28;20453;-73
2023/03/05 09:16:39;;;;;;;5.20;2.53;;;7.10;99.90;;;;;;4987354;28;20121;-71
2023/03/05 09:19:11;;;;;;;6.85;2.50;;;7.20;99.90;;;;;;4971220;28;20027;-77
2023/03/05 09:21:37;;;;;;;5.53;1.85;;;7.10;99.90;;;;;;4985937;28;20384;-77
2023/03/05 09:24:03;;;;;;;4.05;2.40;;;7.00;99.90;;;;;;4991822;28;20038;-77
2023/03/05 09:26:30;;;;;;;10.98;2.65;;;7.10;99.90;;;;;;4992022;28;20113;-77
2023/03/05 09:28:56;;;;;;;8.02;1.88;;;7.10;99.90;;;;;;4995693;28;20057;-77
2023/03/05 09:31:22;;;;;;;6.07;2.50;;;7.30;99.90;;;;;;4991719;28;20105;-76
2023/03/05 09:33:48;;;;;;;8.32;3.10;;;7.30;99.90;;;;;;4988879;28;20038;-77
2023/03/05 09:36:25;;;;;;;4.22;1.38;;;7.40;99.90;;;;;;4991833;28;20042;-76
2023/03/05 09:38:55;;;;;;;4.05;2.20;;;7.20;99.90;;;;;;4993870;28;20502;-76
2023/03/05 09:41:33;;;;;;;7.18;2.35;;;7.20;99.90;;;;;;4989268;28;20046;-76
2023/03/05 09:44:13;;;;;;;11.18;2.72;;;7.30;99.90;;;;;;4987751;28;20117;-78
2023/03/05 09:46:54;;;;;;;10.10;3.13;;;7.40;99.90;;;;;;4990151;28;20030;-75
2023/03/05 09:50:11;;;;;;;2.75;1.60;;;7.40;99.90;;;;;;4983678;28;20027;-76
2023/03/05 09:53:28;;;;;;;6.47;2.08;;;7.20;99.90;;;;;;4984893;28;20403;-74
2023/03/05 09:55:59;;;;;;;6.70;2.10;;;7.00;99.90;;;;;;4976445;28;20054;-73
2023/03/05 09:58:50;;;;;;;7.55;2.35;;;7.00;99.90;;;;;;5006982;28;20080;-75
2023/03/05 10:01:20;;;;;;;3.85;2.10;;;6.90;99.90;;;;;;4988360;28;20372;-80
2023/03/05 10:04:12;;;;;;;5.80;2.60;;;6.80;99.90;;;;;;4992430;28;20040;-79
2023/03/05 10:07:06;;;;;;;6.63;2.50;;;6.80;99.90;;;;;;4988072;28;20064;-77
2023/03/05 10:10:10;;;;;;;5.07;1.98;;;6.90;99.90;;;;;;4970661;28;20035;-76
2023/03/05 10:12:52;;;;;;;6.20;2.28;;;6.90;99.90;;;;;;4996182;28;20117;-75
2023/03/05 10:16:07;;;;;;;4.93;1.90;;;7.00;99.90;;;;;;4991509;28;20056;-78
2023/03/05 10:19:26;;;;;;;4.00;1.58;;;7.10;99.90;;;;;;4974917;28;20046;-72
2023/03/05 10:22:18;;;;;;;10.38;2.28;;;7.10;99.90;;;;;;4987524;28;20038;-72
2023/03/05 10:25:18;;;;;;;5.13;2.28;;;7.00;99.90;;;;;;4990064;28;20037;-82
2023/03/05 10:27:51;;;;;;;9.77;2.25;;;7.10;99.90;;;;;;4986376;28;20038;-81
2023/03/05 10:31:03;;;;;;;5.65;1.63;;;7.00;99.90;;;;;;4983057;28;20014;-74
2023/03/05 10:33:37;;;;;;;10.43;2.60;;;7.00;99.90;;;;;;4970037;28;20464;-68
2023/03/05 10:36:34;;;;;;;2.65;1.85;;;7.00;99.90;;;;;;4987353;28;20041;-75
2023/03/05 10:39:46;;;;;;;2.83;1.20;;;6.90;99.90;;;;;;4990811;28;20027;-82
2023/03/05 10:42:58;;;;;;;7.55;2.78;;;6.90;99.90;;;;;;4989616;28;20468;-81
2023/03/05 10:45:35;;;;;;;5.38;1.77;;;7.00;99.90;;;;;;5000667;28;20038;-81
2023/03/05 10:48:22;;;;;;;6.03;2.25;;;6.80;99.90;;;;;;4989955;28;20038;-88
2023/03/05 10:50:56;;;;;;;5.38;1.85;;;6.80;99.90;;;;;;4999498;28;20034;-81
2023/03/05 10:53:53;;;;;;;7.55;2.92;;;6.90;99.90;;;;;;4989675;28;20027;-82
2023/03/05 10:56:24;;;;;;;3.72;2.00;;;7.00;99.90;;;;;;4986749;28;20061;-89
2023/03/05 10:58:51;;;;;;;6.47;2.78;;;6.90;99.90;;;;;;4994787;28;20030;-84
2023/03/05 11:01:17;;;;;;;4.88;1.77;;;7.00;99.90;;;;;;4994362;28;20133;-78
2023/03/05 11:04:00;;;;;;;6.35;2.05;;;7.00;99.90;;;;;;4995686;28;20101;-87
2023/03/05 11:06:36;;;;;;;4.80;2.15;;;6.90;99.90;;;;;;4990348;28;20149;-86
2023/03/05 11:09:27;;;;;;;5.32;2.13;;;7.10;99.90;;;;;;4995106;28;20034;-83
2023/03/05 11:12:10;;;;;;;9.20;2.65;;;7.10;99.90;;;;;;4993790;28;20367;-81
2023/03/05 11:14:42;;;;;;;5.93;1.52;;;7.00;99.90;;;;;;5010293;28;20030;-83
2023/03/05 11:17:37;;;;;;;3.03;1.52;;;6.90;99.90;;;;;;4977115;28;20462;-82
2023/03/05 11:20:25;;;;;;;10.15;2.35;;;7.00;99.90;;;;;;4993393;28;20027;-85
2023/03/05 11:23:14;;;;;;;6.78;1.85;;;6.90;99.90;;;;;;4993409;28;20045;-82
2023/03/05 11:25:56;;;;;;;5.28;1.67;;;6.90;99.90;;;;;;4988524;28;20128;-84
2023/03/05 11:28:51;;;;;;;5.35;2.78;;;6.90;99.90;;;;;;4987037;28;20121;-78
2023/03/05 11:31:20;;;;;;;7.53;1.63;;;7.00;99.90;;;;;;4991095;28;20117;-75
2023/03/05 11:34:30;;;;;;;7.22;1.45;;;7.00;99.90;;;;;;4994230;28;20033;-77
2023/03/05 11:36:55;;;;;;;4.32;2.03;;;7.00;99.90;;;;;;4993644;28;20026;-79
2023/03/05 11:39:24;;;;;;;5.22;2.22;;;7.20;99.90;;;;;;4990893;28;20038;-76
2023/03/05 11:42:09;;;;;;;5.20;1.95;;;7.20;99.90;;;;;;4993248;28;20514;-76
2023/03/05 11:44:48;;;;;;;4.43;2.35;;;7.20;99.90;;;;;;5008572;28;20026;-84
2023/03/05 11:47:25;;;;;;;6.97;2.55;;;7.20;99.90;;;;;;4982290;28;20042;-73
2023/03/05 11:50:00;;;;;;;3.67;1.60;;;7.30;99.90;;;;;;4979138;28;20089;-73
2023/03/05 11:52:40;;;;;;;8.68;2.42;;;7.30;99.90;;;;;;4980266;28;20069;-73
2023/03/05 11:55:27;;;;;;;5.20;2.47;;;7.10;99.90;;;;;;4961785;28;20057;-74
2023/03/05 11:58:06;;;;;;;6.47;1.95;;;7.30;99.90;;;;;;4978039;28;20121;-74
2023/03/05 12:00:35;;;;;;;5.13;2.05;;;7.20;99.90;;;;;;4990214;28;20061;-73
2023/03/05 12:03:14;;;;;;;5.45;1.88;;;7.20;99.90;;;;;;4988662;28;20049;-73
2023/03/05 12:05:47;;;;;;;9.45;2.28;;;7.30;99.90;;;;;;5007780;28;20038;-70
2023/03/05 12:08:20;;;;;;;6.45;2.25;;;7.30;99.90;;;;;;4990003;28;20137;-73
2023/03/05 12:10:46;;;;;;;4.45;1.35;;;7.40;99.90;;;;;;5007963;28;20034;-74
2023/03/05 12:13:19;;;;;;;3.47;1.52;;;7.10;99.50;;;;;;4991857;28;20050;-73
2023/03/05 12:16:26;;;;;;;5.30;2.38;;;7.10;99.10;;;;;;4987827;28;20026;-73
2023/03/05 12:19:01;;;;;;;3.92;1.50;;;7.10;99.20;;;;;;4992830;28;20085;-73
2023/03/05 12:21:42;;;;;;;5.47;1.40;;;7.20;99.00;;;;;;4992229;28;20037;-73
2023/03/05 12:24:23;;;;;;;5.33;1.13;;;7.20;98.80;;;;;;4982612;28;20043;-73
2023/03/05 12:27:03;;;;;;;3.83;1.65;;;7.10;98.60;;;;;;4991398;28;20035;-73
2023/03/05 12:29:32;;;;;;;5.20;2.38;;;7.00;98.80;;;;;;4986410;28;20454;-74
2023/03/05 12:32:02;;;;;;;5.30;1.88;;;6.90;99.40;;;;;;4991022;28;20054;-74
2023/03/05 12:34:37;;;;;;;4.07;1.90;;;6.90;99.70;;;;;;4991697;28;20038;-73
2023/03/05 12:37:20;;;;;;;6.72;2.55;;;7.00;99.90;;;;;;4991039;28;20072;-73
2023/03/05 12:39:59;;;;;;;2.88;1.20;;;7.00;99.50;;;;;;5006886;28;20030;-72
2023/03/05 12:42:28;;;;;;;2.90;1.30;;;7.10;99.30;;;;;;4989197;28;20030;-74
2023/03/05 12:45:09;;;;;;;9.88;1.67;;;7.10;99.10;;;;;;4992629;28;20054;-74
2023/03/05 12:48:01;;;;;;;5.03;1.33;;;7.10;99.20;;;;;;4992711;28;20026;-73
2023/03/05 12:50:27;;;;;;;7.30;1.92;;;7.10;99.30;;;;;;4984540;28;20109;-73
2023/03/05 12:53:03;;;;;;;5.22;1.80;;;7.00;99.60;;;;;;4989577;28;20463;-73
2023/03/05 12:55:46;;;;;;;3.03;1.90;;;7.00;99.60;;;;;;4992654;28;20049;-73
2023/03/05 12:58:52;;;;;;;1.73;1.05;;;7.00;99.70;;;;;;4998036;28;20101;-73
2023/03/05 13:01:37;;;;;;;4.78;1.40;;;7.00;99.10;;;;;;4951074;28;20050;-73
2023/03/05 13:04:13;;;;;;;2.72;1.40;;;7.00;99.00;;;;;;4989084;28;20469;-73
2023/03/05 13:06:39;;;;;;;1.10;0.85;;;7.00;98.70;;;;;;4990729;28;20088;-73
2023/03/05 13:09:24;;;;;;;2.10;1.05;;;7.00;98.90;;;;;;4992087;28;20078;-74
2023/03/05 13:11:52;;;;;;;2.63;1.23;;;6.90;98.70;;;;;;4992029;28;20034;-74
2023/03/05 13:14:40;;;;;;;3.08;1.23;;;6.70;98.80;;;;;;4994315;23;20144;-82